createdAt,value
2023-02-20T00:00:34.400Z,8.32
2023-02-20T00:03:02.127Z,7.90
2023-02-20T00:05:29.723Z,8.63
2023-02-20T00:07:57.388Z,8.43
2023-02-20T00:10:24.983Z,8.70
2023-02-20T00:12:54.159Z,7.82
2023-02-20T00:15:22.169Z,8.63
2023-02-20T00:17:50.202Z,7.60
2023-02-20T00:20:19.553Z,8.02
2023-02-20T00:22:47.189Z,7.63
2023-02-20T00:25:16.441Z,7.90
2023-02-20T00:27:44.248Z,7.93
2023-02-20T00:30:16.306Z,8.25
2023-02-20T00:32:43.918Z,8.02
2023-02-20T00:35:11.989Z,7.82
2023-02-20T00:37:39.922Z,7.47
2023-02-20T00:40:08.840Z,8.30
2023-02-20T00:42:36.498Z,8.23
2023-02-20T00:45:04.294Z,8.95
2023-02-20T00:47:33.257Z,7.78
2023-02-20T00:50:00.896Z,8.98
2023-02-20T00:52:28.563Z,8.18
2023-02-20T00:54:56.177Z,8.07
2023-02-20T00:57:23.793Z,8.02
2023-02-20T00:59:51.643Z,8.18
2023-02-20T01:02:19.227Z,8.68
2023-02-20T01:04:48.267Z,8.40
2023-02-20T01:07:15.906Z,8.32
2023-02-20T01:09:43.516Z,8.15
2023-02-20T01:12:11.166Z,8.45
2023-02-20T01:14:38.937Z,9.25
2023-02-20T01:17:06.547Z,8.70
2023-02-20T01:19:34.255Z,8.52
2023-02-20T01:22:06.346Z,8.40
2023-02-20T01:27:01.496Z,7.78
2023-02-20T01:29:29.094Z,7.85
2023-02-20T01:31:56.817Z,8.70
2023-02-20T01:34:24.517Z,8.63
2023-02-20T01:36:53.553Z,8.93
2023-02-20T01:39:25.120Z,8.60
2023-02-20T01:41:56.189Z,8.80
2023-02-20T01:44:25.708Z,10.90
2023-02-20T01:46:56.447Z,8.82
2023-02-20T01:49:29.002Z,8.60
2023-02-20T01:52:00.274Z,8.32
2023-02-20T01:54:30.128Z,8.90
2023-02-20T01:57:00.511Z,8.68
2023-02-20T01:59:31.427Z,8.77
2023-02-20T02:01:59.524Z,8.82
2023-02-20T02:04:27.543Z,8.45
2023-02-20T02:06:55.596Z,9.18
2023-02-20T02:09:32.993Z,8.10
2023-02-20T02:12:00.623Z,8.90
2023-02-20T02:14:28.314Z,8.25
2023-02-20T02:17:10.529Z,8.82
2023-02-20T02:20:13.458Z,9.07
2023-02-20T02:23:14.694Z,8.13
2023-02-20T02:25:48.687Z,7.80
2023-02-20T02:28:39.269Z,7.97
2023-02-20T02:31:47.237Z,8.10
2023-02-20T02:34:27.722Z,8.55
2023-02-20T02:37:03.410Z,8.63
2023-02-20T02:39:37.972Z,8.40
2023-02-20T02:42:10.700Z,8.23
2023-02-20T02:44:42.847Z,9.32
2023-02-20T02:49:45.638Z,8.48
2023-02-20T02:52:35.335Z,8.07
2023-02-20T02:55:02.991Z,8.35
2023-02-20T02:57:30.590Z,8.75
2023-02-20T03:00:01.681Z,8.68
2023-02-20T03:02:31.893Z,8.77
2023-02-20T03:05:00.435Z,8.48
2023-02-20T03:07:29.976Z,8.68
2023-02-20T03:10:01.807Z,9.20
2023-02-20T03:12:30.384Z,8.13
2023-02-20T03:15:18.125Z,8.05
2023-02-20T03:17:49.645Z,9.23
2023-02-20T03:20:20.167Z,9.05
2023-02-20T03:22:51.959Z,8.57
2023-02-20T03:25:23.846Z,8.90
2023-02-20T03:27:54.893Z,8.93
2023-02-20T03:30:25.311Z,9.38
2023-02-20T03:33:12.759Z,9.13
2023-02-20T03:35:59.420Z,8.60
2023-02-20T03:38:48.095Z,8.18
2023-02-20T03:41:34.380Z,8.48
2023-02-20T03:44:03.917Z,8.35
2023-02-20T03:46:33.430Z,8.85
2023-02-20T03:49:04.474Z,8.90
2023-02-20T03:51:32.149Z,8.93
2023-02-20T03:54:01.906Z,8.77
2023-02-20T03:56:32.889Z,8.30
2023-02-20T03:59:03.721Z,9.07
2023-02-20T04:01:32.903Z,8.75
2023-02-20T04:04:00.696Z,8.68
2023-02-20T04:06:31.661Z,9.00
2023-02-20T04:09:04.845Z,8.85
2023-02-20T04:11:36.057Z,8.63
2023-02-20T04:14:04.591Z,8.83
2023-02-20T04:16:34.186Z,8.07
2023-02-20T04:19:01.821Z,8.85
2023-02-20T04:21:34.269Z,9.07
2023-02-20T04:24:08.196Z,9.02
2023-02-20T04:26:36.414Z,8.93
2023-02-20T04:29:04.579Z,9.00
2023-02-20T04:31:32.324Z,8.88
2023-02-20T04:34:00.256Z,8.93
2023-02-20T04:36:28.261Z,8.25
2023-02-20T04:38:55.835Z,8.82
2023-02-20T04:41:24.859Z,8.57
2023-02-20T04:44:13.003Z,9.23
2023-02-20T04:46:40.619Z,8.50
2023-02-20T04:49:08.182Z,8.25
2023-02-20T04:51:35.805Z,8.68
2023-02-20T04:54:03.436Z,9.07
2023-02-20T04:56:32.447Z,8.18
2023-02-20T04:59:00.020Z,8.65
2023-02-20T05:01:27.633Z,8.55
2023-02-20T05:03:55.238Z,8.35
2023-02-20T05:06:22.832Z,8.45
2023-02-20T05:08:50.704Z,9.55
2023-02-20T05:11:18.592Z,8.48
2023-02-20T05:13:47.642Z,8.30
2023-02-20T05:16:15.800Z,8.05
2023-02-20T05:18:43.648Z,8.50
2023-02-20T05:21:32.369Z,8.20
2023-02-20T05:23:59.976Z,8.30
2023-02-20T05:26:27.577Z,8.30
2023-02-20T05:28:56.575Z,8.52
2023-02-20T05:31:30.089Z,8.35
2023-02-20T05:33:57.793Z,9.85
2023-02-20T05:36:25.442Z,8.70
2023-02-20T05:38:53.067Z,8.63
2023-02-20T05:41:20.963Z,8.48
2023-02-20T05:43:49.284Z,8.38
2023-02-20T05:46:18.570Z,8.23
2023-02-20T05:48:49.879Z,8.27
2023-02-20T05:51:21.849Z,8.18
2023-02-20T05:53:49.500Z,8.30
2023-02-20T05:56:17.165Z,8.00
2023-02-20T05:58:45.317Z,7.47
2023-02-20T06:01:19.736Z,7.85
2023-02-20T06:03:47.405Z,8.68
2023-02-20T06:06:15.443Z,8.40
2023-02-20T06:08:43.179Z,8.60
2023-02-20T06:11:12.335Z,8.30
2023-02-20T06:13:41.076Z,7.97
2023-02-20T06:16:08.880Z,8.23
2023-02-20T06:18:41.341Z,8.43
2023-02-20T06:21:09.877Z,8.10
2023-02-20T06:23:38.201Z,7.97
2023-02-20T06:26:06.298Z,8.27
2023-02-20T06:28:34.189Z,7.97
2023-02-20T06:31:02.501Z,8.90
2023-02-20T06:33:30.320Z,7.72
2023-02-20T06:35:59.372Z,8.50
2023-02-20T06:38:27.222Z,8.18
2023-02-20T06:40:54.843Z,7.55
2023-02-20T06:43:22.805Z,7.93
2023-02-20T06:45:50.442Z,8.50
2023-02-20T06:48:18.156Z,7.88
2023-02-20T06:50:45.757Z,8.30
2023-02-20T06:53:14.737Z,7.68
2023-02-20T06:55:42.547Z,7.82
2023-02-20T06:58:11.411Z,8.02
2023-02-20T07:00:39.084Z,7.72
2023-02-20T07:03:06.735Z,7.72
2023-02-20T07:05:34.339Z,7.78
2023-02-20T07:08:01.995Z,8.25
2023-02-20T07:10:31.034Z,7.95
2023-02-20T07:12:58.642Z,8.57
2023-02-20T07:15:26.256Z,9.52
2023-02-20T07:17:53.843Z,8.90
2023-02-20T07:20:21.465Z,8.20
2023-02-20T07:22:52.385Z,8.63
2023-02-20T07:25:19.992Z,7.90
2023-02-20T07:27:49.013Z,8.60
2023-02-20T07:30:16.672Z,8.43
2023-02-20T07:32:44.268Z,8.20
2023-02-20T07:35:12.149Z,8.30
2023-02-20T07:37:39.846Z,7.75
2023-02-20T07:40:08.411Z,8.52
2023-02-20T07:42:36.020Z,8.35
2023-02-20T07:45:05.146Z,8.32
2023-02-20T07:47:32.750Z,8.77
2023-02-20T07:50:00.341Z,8.10
2023-02-20T07:52:27.955Z,8.55
2023-02-20T07:54:55.577Z,8.20
2023-02-20T07:57:23.248Z,8.45
2023-02-20T07:59:50.867Z,8.20
2023-02-20T08:02:19.807Z,7.80
2023-02-20T08:04:47.456Z,9.07
2023-02-20T08:07:15.080Z,8.35
2023-02-20T08:09:42.670Z,9.25
2023-02-20T08:12:10.300Z,8.70
2023-02-20T08:14:37.860Z,9.32
2023-02-20T08:17:05.862Z,9.20
2023-02-20T08:19:34.898Z,8.48
2023-02-20T08:22:02.480Z,8.38
2023-02-20T08:24:30.077Z,9.70
2023-02-20T08:26:58.533Z,9.25
2023-02-20T08:29:27.196Z,9.07
2023-02-20T08:31:54.908Z,8.88
2023-02-20T08:34:22.587Z,8.25
2023-02-20T08:36:51.553Z,9.20
2023-02-20T08:39:19.327Z,9.00
2023-02-20T08:41:47.705Z,10.77
2023-02-20T08:44:16.043Z,8.82
2023-02-20T08:46:47.762Z,8.60
2023-02-20T08:49:17.975Z,9.30
2023-02-20T08:51:46.097Z,9.55
2023-02-20T08:54:16.754Z,9.07
2023-02-20T08:56:44.354Z,9.13
2023-02-20T08:59:12.033Z,9.20
2023-02-20T09:01:42.198Z,9.75
2023-02-20T09:04:10.358Z,9.20
2023-02-20T09:06:38.395Z,9.30
2023-02-20T09:09:06.015Z,9.95
2023-02-20T09:11:36.094Z,9.98
2023-02-20T09:14:03.728Z,9.00
2023-02-20T09:16:31.608Z,9.23
2023-02-20T09:19:00.432Z,10.02
2023-02-20T09:21:29.295Z,10.18
2023-02-20T09:23:56.988Z,9.45
2023-02-20T09:26:24.662Z,10.82
2023-02-20T09:28:53.611Z,9.98
2023-02-20T09:31:21.265Z,10.27
2023-02-20T09:33:51.425Z,9.65
2023-02-20T09:36:19.348Z,9.55
2023-02-20T09:38:47.040Z,9.90
2023-02-20T09:41:25.852Z,10.30
2023-02-20T09:43:58.593Z,11.02
2023-02-20T09:46:26.831Z,10.52
2023-02-20T09:49:01.956Z,11.65
2023-02-20T09:51:32.402Z,9.75
2023-02-20T09:54:03.736Z,9.93
2023-02-20T09:56:33.260Z,11.03
2023-02-20T09:59:07.372Z,11.27
2023-02-20T10:01:36.236Z,10.02
2023-02-20T10:04:05.888Z,10.18
2023-02-20T10:06:34.890Z,10.63
2023-02-20T10:09:03.451Z,9.90
2023-02-20T10:11:44.003Z,10.35
2023-02-20T10:14:44.293Z,10.48
2023-02-20T10:17:19.585Z,11.10
2023-02-20T10:19:52.987Z,10.30
2023-02-20T10:22:25.223Z,10.40
2023-02-20T10:27:30.515Z,11.02
2023-02-20T10:30:00.678Z,9.98
2023-02-20T10:32:32.569Z,10.13
2023-02-20T10:35:05.106Z,10.07
2023-02-20T10:37:47.056Z,11.02
2023-02-20T10:40:19.832Z,11.00
2023-02-20T10:42:52.037Z,10.40
2023-02-20T10:47:52.956Z,9.95
2023-02-20T10:50:24.877Z,10.33
2023-02-20T10:52:55.842Z,10.00
2023-02-20T10:55:27.009Z,11.18
2023-02-20T10:57:58.733Z,10.25
2023-02-20T11:00:32.986Z,11.25
2023-02-20T11:03:05.639Z,11.00
2023-02-20T11:05:37.749Z,11.07
2023-02-20T11:08:05.600Z,10.68
2023-02-20T11:10:35.335Z,10.25
2023-02-20T11:13:03.702Z,10.85
2023-02-20T11:15:34.741Z,10.32
2023-02-20T11:18:02.407Z,10.30
2023-02-20T11:20:43.630Z,10.70
2023-02-20T11:23:11.644Z,10.77
2023-02-20T11:25:41.982Z,10.63
2023-02-20T11:28:12.790Z,10.32
2023-02-20T11:30:43.978Z,10.23
2023-02-20T11:33:13.997Z,11.03
2023-02-20T11:35:42.093Z,10.40
2023-02-20T11:38:31.553Z,9.93
2023-02-20T11:41:36.501Z,10.50
2023-02-20T11:44:31.003Z,10.13
2023-02-20T11:47:28.087Z,10.00
2023-02-20T11:50:19.491Z,10.40
2023-02-20T11:52:59.028Z,10.60
2023-02-20T11:55:27.900Z,10.48
2023-02-20T11:57:55.670Z,10.40
2023-02-20T12:00:24.975Z,10.23
2023-02-20T12:02:59.569Z,10.43
2023-02-20T12:05:40.646Z,9.80
2023-02-20T12:08:25.165Z,10.43
2023-02-20T12:10:54.564Z,10.07
2023-02-20T12:13:22.187Z,10.68
2023-02-20T12:15:55.704Z,11.10
2023-02-20T12:18:38.057Z,11.02
2023-02-20T12:23:43.238Z,9.82
2023-02-20T12:26:23.814Z,9.60
2023-02-20T12:29:03.553Z,9.70
2023-02-20T12:31:39.681Z,10.02
2023-02-20T12:34:24.424Z,10.20
2023-02-20T12:36:56.527Z,10.32
2023-02-20T12:42:03.331Z,10.00
2023-02-20T12:44:39.749Z,10.70
2023-02-20T12:47:18.094Z,10.13
2023-02-20T12:49:56.029Z,10.30
2023-02-20T12:53:03.260Z,9.85
2023-02-20T12:55:34.172Z,10.63
2023-02-20T12:58:13.602Z,10.13
2023-02-20T13:00:43.275Z,9.85
2023-02-20T13:03:12.933Z,10.25
2023-02-20T13:05:44.307Z,9.95
2023-02-20T13:08:14.483Z,10.35
2023-02-20T13:10:48.466Z,9.82
2023-02-20T13:13:16.872Z,10.45
2023-02-20T13:15:50.813Z,10.25
2023-02-20T13:18:21.752Z,10.70
2023-02-20T13:20:52.640Z,9.90
2023-02-20T13:23:32.949Z,10.88
2023-02-20T13:26:00.803Z,10.73
2023-02-20T13:28:43.142Z,10.50
2023-02-20T13:31:22.287Z,9.88
2023-02-20T13:33:51.675Z,10.48
2023-02-20T13:36:39.837Z,10.50
2023-02-20T13:39:41.396Z,9.90
2023-02-20T13:42:29.040Z,10.68
2023-02-20T13:44:57.157Z,10.52
2023-02-20T13:47:38.110Z,10.38
2023-02-20T13:50:31.666Z,9.95
2023-02-20T13:53:07.144Z,10.48
2023-02-20T13:55:35.145Z,10.50
2023-02-20T13:58:13.816Z,10.32
2023-02-20T14:00:47.467Z,10.63
2023-02-20T14:03:20.438Z,10.25
2023-02-20T14:06:02.421Z,11.32
2023-02-20T14:08:31.504Z,10.38
2023-02-20T14:11:06.060Z,10.55
2023-02-20T14:13:40.140Z,11.07
2023-02-20T14:16:25.904Z,11.10
2023-02-20T14:18:56.899Z,10.13
2023-02-20T14:21:24.544Z,10.45
2023-02-20T14:23:54.602Z,10.48
2023-02-20T14:26:24.823Z,10.10
2023-02-20T14:28:54.097Z,10.40
2023-02-20T14:31:24.645Z,10.15
2023-02-20T14:33:55.266Z,11.07
2023-02-20T14:36:44.382Z,10.02
2023-02-20T14:39:22.245Z,10.73
2023-02-20T14:41:54.809Z,10.15
2023-02-20T14:44:24.174Z,10.07
2023-02-20T14:46:54.105Z,9.55
2023-02-20T14:49:27.166Z,10.20
2023-02-20T14:52:05.785Z,10.38
2023-02-20T14:54:34.785Z,10.68
2023-02-20T14:57:04.851Z,9.63
2023-02-20T14:59:34.580Z,9.98
2023-02-20T15:02:03.935Z,9.65
2023-02-20T15:04:31.580Z,9.95
2023-02-20T15:07:04.665Z,9.90
2023-02-20T15:09:44.538Z,10.43
2023-02-20T15:12:22.335Z,10.18
2023-02-20T15:14:55.772Z,9.98
2023-02-20T15:17:25.284Z,10.73
2023-02-20T15:19:53.407Z,10.02
2023-02-20T15:22:29.747Z,10.65
2023-02-20T15:28:08.492Z,9.90
2023-02-20T15:30:36.344Z,9.68
2023-02-20T15:33:03.938Z,9.82
2023-02-20T15:35:32.592Z,9.65
2023-02-20T15:38:01.670Z,10.20
2023-02-20T15:40:30.362Z,10.15
2023-02-20T15:42:58.494Z,10.43
2023-02-20T15:45:28.588Z,9.90
2023-02-20T15:47:56.382Z,10.88
2023-02-20T15:50:24.142Z,9.85
2023-02-20T15:52:51.755Z,10.15
2023-02-20T15:55:20.961Z,9.98
2023-02-20T15:57:49.321Z,9.50
2023-02-20T16:00:20.826Z,9.57
2023-02-20T16:02:49.830Z,9.63
2023-02-20T16:05:17.401Z,9.60
2023-02-20T16:07:45.176Z,9.70
2023-02-20T16:10:13.846Z,9.45
2023-02-20T16:12:41.312Z,9.60
2023-02-20T16:15:09.337Z,9.43
2023-02-20T16:17:36.828Z,9.35
2023-02-20T16:20:14.363Z,9.48
2023-02-20T16:22:41.814Z,9.15
2023-02-20T16:25:09.411Z,9.60
2023-02-20T16:27:36.875Z,9.05
2023-02-20T16:30:04.492Z,9.52
2023-02-20T16:32:32.135Z,9.82
2023-02-20T16:35:01.333Z,9.65
2023-02-20T16:37:31.058Z,9.85
2023-02-20T16:39:58.491Z,9.50
2023-02-20T16:42:28.245Z,8.75
2023-02-20T16:44:58.545Z,9.90
2023-02-20T16:47:27.791Z,10.95
2023-02-20T16:49:57.698Z,9.75
2023-02-20T16:52:27.407Z,9.70
2023-02-20T16:54:56.700Z,9.48
2023-02-20T16:57:24.642Z,9.48
2023-02-20T16:59:55.069Z,10.15
2023-02-20T17:02:24.077Z,9.40
2023-02-20T17:04:52.125Z,9.38
2023-02-20T17:07:19.961Z,9.50
2023-02-20T17:09:47.418Z,8.88
2023-02-20T17:12:17.806Z,9.20
2023-02-20T17:14:45.243Z,10.15
2023-02-20T17:17:13.949Z,9.43
2023-02-20T17:19:42.127Z,8.93
2023-02-20T17:22:10.306Z,9.10
2023-02-20T17:24:40.170Z,8.75
2023-02-20T17:27:07.641Z,9.32
2023-02-20T17:30:54.335Z,9.32
2023-02-20T17:33:24.200Z,9.00
2023-02-20T17:35:53.192Z,9.03
2023-02-20T17:38:20.915Z,9.00
2023-02-20T17:40:48.505Z,9.02
2023-02-20T17:43:16.124Z,9.25
2023-02-20T17:45:43.718Z,9.55
2023-02-20T17:48:13.421Z,9.40
2023-02-20T17:50:41.079Z,10.18
2023-02-20T17:53:09.128Z,9.02
2023-02-20T17:55:36.765Z,9.70
2023-02-20T17:58:04.363Z,9.43
2023-02-20T18:00:32.002Z,8.77
2023-02-20T18:03:35.220Z,8.68
2023-02-20T18:06:04.290Z,8.88
2023-02-20T18:08:31.977Z,9.50
2023-02-20T18:10:59.696Z,8.65
2023-02-20T18:13:27.619Z,9.55
2023-02-20T18:15:55.276Z,9.15
2023-02-20T18:18:22.881Z,8.85
2023-02-20T18:20:50.802Z,9.05
2023-02-20T18:23:19.742Z,8.82
2023-02-20T18:25:47.376Z,9.07
2023-02-20T18:28:14.997Z,9.15
2023-02-20T18:30:42.636Z,9.43
2023-02-20T18:33:10.579Z,8.60
2023-02-20T18:35:38.473Z,8.80
2023-02-20T18:38:06.324Z,9.00
2023-02-20T18:40:35.560Z,9.13
2023-02-20T18:43:03.190Z,8.63
2023-02-20T18:45:30.811Z,9.48
2023-02-20T18:47:58.439Z,9.55
2023-02-20T18:50:26.030Z,9.60
2023-02-20T18:52:53.637Z,8.90
2023-02-20T18:55:21.315Z,8.45
2023-02-20T18:57:51.366Z,8.20
2023-02-20T19:00:20.962Z,8.93
2023-02-20T19:02:50.656Z,8.60
2023-02-20T19:05:18.621Z,9.50
2023-02-20T19:07:47.509Z,9.48
2023-02-20T19:10:16.604Z,9.07
2023-02-20T19:12:44.301Z,9.20
2023-02-20T19:15:13.355Z,9.68
2023-02-20T19:17:40.991Z,9.52
2023-02-20T19:20:15.290Z,9.40
2023-02-20T19:22:42.899Z,8.63
2023-02-20T19:25:10.722Z,9.27
2023-02-20T19:27:38.325Z,9.15
2023-02-20T19:30:07.434Z,9.35
2023-02-20T19:32:36.478Z,9.13
2023-02-20T19:35:04.187Z,8.63
2023-02-20T19:37:31.794Z,8.43
2023-02-20T19:39:59.444Z,8.90
2023-02-20T19:42:28.645Z,8.95
2023-02-20T19:44:56.353Z,8.90
2023-02-20T19:47:23.956Z,9.82
2023-02-20T19:49:52.868Z,9.15
2023-02-20T19:52:20.486Z,8.77
2023-02-20T19:54:48.493Z,9.57
2023-02-20T19:57:16.481Z,9.45
2023-02-20T19:59:44.341Z,9.65
2023-02-20T20:02:12.774Z,9.38
2023-02-20T20:04:40.737Z,10.32
2023-02-20T20:07:09.663Z,10.05
2023-02-20T20:09:38.110Z,9.57
2023-02-20T20:12:27.871Z,9.52
2023-02-20T20:14:56.328Z,12.52
2023-02-20T20:17:23.994Z,11.10
2023-02-20T20:20:00.464Z,10.50
2023-02-20T20:22:30.816Z,8.93
2023-02-20T20:24:58.462Z,10.90
2023-02-20T20:27:26.049Z,10.52
2023-02-20T20:29:53.681Z,9.75
2023-02-20T20:32:22.233Z,8.50
2023-02-20T20:34:52.579Z,10.25
2023-02-20T20:37:21.344Z,10.35
2023-02-20T20:39:51.325Z,9.63
2023-02-20T20:42:23.288Z,10.13
2023-02-20T20:44:51.274Z,11.20
2023-02-20T20:47:21.769Z,9.73
2023-02-20T20:49:49.446Z,9.75
2023-02-20T20:52:17.567Z,10.07
2023-02-20T20:54:51.220Z,9.40
2023-02-20T20:57:19.145Z,9.38
2023-02-20T20:59:47.282Z,9.13
2023-02-20T21:02:15.537Z,9.10
2023-02-20T21:04:43.274Z,9.85
2023-02-20T21:07:10.849Z,9.20
2023-02-20T21:09:38.494Z,9.45
2023-02-20T21:12:07.963Z,9.40
2023-02-20T21:14:39.999Z,9.45
2023-02-20T21:17:08.164Z,8.75
2023-02-20T21:19:35.766Z,9.68
2023-02-20T21:22:03.525Z,9.32
2023-02-20T21:24:31.206Z,10.52
2023-02-20T21:26:58.812Z,18.30
2023-02-20T21:29:27.722Z,10.70
2023-02-20T21:31:55.384Z,10.10
2023-02-20T21:34:23.347Z,8.85
2023-02-20T21:36:51.656Z,9.63
2023-02-20T21:39:19.317Z,9.38
2023-02-20T21:42:04.463Z,10.02
2023-02-20T21:44:36.336Z,8.38
2023-02-20T21:47:05.975Z,9.52
2023-02-20T21:49:35.627Z,8.98
2023-02-20T21:52:03.295Z,8.32
2023-02-20T21:54:32.687Z,8.57
2023-02-20T21:57:01.166Z,8.20
2023-02-20T21:59:27.808Z,9.02
2023-02-20T22:01:55.715Z,9.13
2023-02-20T22:04:22.924Z,8.73
2023-02-20T22:07:08.890Z,8.27
2023-02-20T22:09:54.734Z,8.40
2023-02-20T22:12:40.026Z,8.57
2023-02-20T22:15:26.708Z,8.98
2023-02-20T22:18:13.224Z,7.93
2023-02-20T22:20:58.467Z,8.63
2023-02-20T22:23:43.995Z,9.45
2023-02-20T22:26:32.711Z,10.38
2023-02-20T22:29:18.071Z,10.68
2023-02-20T22:32:03.560Z,11.43
2023-02-20T22:34:50.511Z,10.38
2023-02-20T22:37:36.639Z,11.30
2023-02-20T22:40:22.479Z,9.48
2023-02-20T22:43:07.844Z,10.60
2023-02-20T22:45:53.189Z,9.35
2023-02-20T22:48:38.440Z,8.43
2023-02-20T22:51:26.322Z,8.65
2023-02-20T22:54:11.571Z,8.40
2023-02-20T22:56:56.572Z,9.10
2023-02-20T22:59:41.848Z,8.88
2023-02-20T23:02:26.973Z,8.10
2023-02-20T23:05:12.347Z,8.68
2023-02-20T23:07:58.988Z,8.73
2023-02-20T23:10:44.277Z,8.68
2023-02-20T23:13:29.780Z,9.45
2023-02-20T23:16:15.058Z,8.20
2023-02-20T23:19:00.315Z,9.18
2023-02-20T23:21:45.605Z,9.20
2023-02-20T23:24:32.142Z,9.35
2023-02-20T23:27:17.538Z,8.50
2023-02-20T23:30:02.972Z,9.88
2023-02-20T23:32:48.009Z,9.77
2023-02-20T23:35:34.730Z,8.93
2023-02-20T23:38:20.009Z,8.57
2023-02-20T23:41:06.744Z,7.93
2023-02-20T23:43:51.970Z,8.48
2023-02-20T23:46:37.358Z,8.18
2023-02-20T23:49:22.747Z,7.95
2023-02-20T23:52:16.019Z,8.68
2023-02-20T23:55:01.295Z,8.23
2023-02-20T23:57:47.880Z,8.55
